Hauptseite
METAR-TAF:

METAR-TAF

Flughäfen :

Flughafen Dole-Jura

Dole, Frankreich

Breite: 47-02-34N, Länge: 005-26-06E, Höhe: 196 m

Beobachtung

Neuester Wetterbericht von vor 37 Minuten, um 20:30 UTC
Wind 16 kt aus Süd/Südwest
Temperatur 8°C
Luftfeuchtigkeit 71%
Luftdruck 1012 hPa
Sichtweite 10 km oder mehr
keine Wolken unter 1500 m und keine Kumulonimbus oder Gewitterwolken

METAR: LFGJ 162030Z AUTO 21016KT CAVOK 08/03 Q1012

Zeit: 22:07 (21:07 UTC)

Prognose

Neuester Wetterbericht von vor 7 Stunden und 7 Minuten, um 14:00 UTC
Gültige Prognose vom 16 um 15 UTC bis 16 um 24 UTC
Wind 13 kt aus Süd/Südwest
Sichtweite 10 km oder mehr
keine Wolken unter 1500 m und keine Kumulonimbus oder Gewitterwolken
Übergehend zu
vom 16 um 17 UTC bis 16 um 20 UTC
Wind 15 kt aus Südwest, Böen bis zu 27 kt

TAF: LFGJ 161400Z 1615/1624 21013KT CAVOK BECMG 1617/1620 22015G27KT

Wetterbeobachtungen und Prognosen von mehr als 4000 Flughäfen (METAR und TAF Bericht).

Die verfügbaren Stationen werden durch gelbe und rote Markierungen auf der Karte dargestellt.

Führen Sie die Maus auf sie, um den Namen der Station zu sehen.

Darauf klicken, um die Beobachtung von Wetterbeobachtungen und Prognosen zu sehen.

Um die Karte zu ändern : klicken Sie auf den grünen Tasten mit einem schwarzen Kreuz Zum Vergrößern, auf den grünen Button mit einem Gedankenstrich zu verkleinern, oder auf die grünen Pfeile für benachbarte Karten.


METAR-TAF: